Terminal Aerodrome Forecast
Issued by NWS Cleveland, OH

Home | Current Version | Previous Version | Graphics & Text | Print | Product List | Glossary On
Versions: 1 2 3 4 5 6 7 8 9 10 11 12 13 14 15 16 17 18 19 20 21 22 23 24 25 26 27 28
000
FTUS41 KCLE 211514 AAA
TAFCLE
TAF AMD
KCLE 211514Z 2115/2218 18010KT P6SM OVC150
     FM212100 22007KT P6SM OVC050
      TEMPO 2121/2201 -SHRA
     FM220400 20005KT P6SM OVC025
     FM220900 18005KT 3SM BR OVC008=

USA.gov is the U.S. government's official web portal to all federal, state and local government web resources and services.